sensor_id;sensor_type;location;lat;lon;timestamp;pressure;altitude;pressure_sealevel;temperature;humidity
7670;BME280;3877;42.562;27.636;2022-08-20T00:00:12;101127.66;;;25.07;100.00
7670;BME280;3877;42.562;27.636;2022-08-20T00:02:41;101125.22;;;25.06;100.00
7670;BME280;3877;42.562;27.636;2022-08-20T00:05:10;101124.38;;;25.05;100.00
7670;BME280;3877;42.562;27.636;2022-08-20T00:07:39;101124.81;;;25.07;100.00
7670;BME280;3877;42.562;27.636;2022-08-20T00:10:08;101121.13;;;25.03;100.00
7670;BME280;3877;42.562;27.636;2022-08-20T00:12:36;101127.69;;;25.04;100.00
7670;BME280;3877;42.562;27.636;2022-08-20T00:15:05;101132.16;;;25.05;100.00
7670;BME280;3877;42.562;27.636;2022-08-20T00:17:32;101121.94;;;25.07;100.00
7670;BME280;3877;42.562;27.636;2022-08-20T00:20:03;101104.72;;;24.86;100.00
7670;BME280;3877;42.562;27.636;2022-08-20T00:22:30;101125.63;;;25.01;100.00
7670;BME280;3877;42.562;27.636;2022-08-20T00:24:59;101121.97;;;24.90;100.00
7670;BME280;3877;42.562;27.636;2022-08-20T00:27:26;101131.78;;;24.96;100.00
7670;BME280;3877;42.562;27.636;2022-08-20T00:29:53;101119.91;;;24.97;100.00
7670;BME280;3877;42.562;27.636;2022-08-20T00:32:20;101131.78;;;25.03;100.00
7670;BME280;3877;42.562;27.636;2022-08-20T00:34:48;101122.34;;;25.06;100.00
7670;BME280;3877;42.562;27.636;2022-08-20T00:37:15;101128.44;;;25.25;100.00
7670;BME280;3877;42.562;27.636;2022-08-20T00:39:43;101136.97;;;25.50;100.00
7670;BME280;3877;42.562;27.636;2022-08-20T00:42:11;101098.91;;;25.36;100.00
7670;BME280;3877;42.562;27.636;2022-08-20T00:44:43;101149.22;;;25.61;100.00
7670;BME280;3877;42.562;27.636;2022-08-20T00:47:11;101149.69;;;25.56;100.00
7670;BME280;3877;42.562;27.636;2022-08-20T00:49:38;101144.75;;;25.60;100.00
7670;BME280;3877;42.562;27.636;2022-08-20T00:52:10;101143.97;;;25.56;100.00
7670;BME280;3877;42.562;27.636;2022-08-20T00:54:41;101139.81;;;25.57;100.00
7670;BME280;3877;42.562;27.636;2022-08-20T00:57:17;101146.38;;;25.58;100.00
7670;BME280;3877;42.562;27.636;2022-08-20T00:59:48;101137.34;;;25.63;100.00
7670;BME280;3877;42.562;27.636;2022-08-20T01:02:16;101141.84;;;25.67;100.00
7670;BME280;3877;42.562;27.636;2022-08-20T01:04:44;101132.44;;;25.63;100.00
7670;BME280;3877;42.562;27.636;2022-08-20T01:07:14;101134.47;;;25.66;100.00
7670;BME280;3877;42.562;27.636;2022-08-20T01:09:45;101134.06;;;25.68;100.00
7670;BME280;3877;42.562;27.636;2022-08-20T01:12:15;101120.94;;;25.63;100.00
7670;BME280;3877;42.562;27.636;2022-08-20T01:14:44;101127.50;;;25.64;100.00
7670;BME280;3877;42.562;27.636;2022-08-20T01:17:14;101116.88;;;25.61;100.00
7670;BME280;3877;42.562;27.636;2022-08-20T01:19:45;101117.66;;;25.68;100.00
7670;BME280;3877;42.562;27.636;2022-08-20T01:22:18;101113.97;;;25.68;100.00
7670;BME280;3877;42.562;27.636;2022-08-20T01:25:09;101083.28;;;25.47;100.00
7670;BME280;3877;42.562;27.636;2022-08-20T01:27:40;101093.91;;;25.57;100.00
7670;BME280;3877;42.562;27.636;2022-08-20T01:30:08;101104.56;;;25.57;100.00
7670;BME280;3877;42.562;27.636;2022-08-20T01:32:35;101116.06;;;25.50;100.00
7670;BME280;3877;42.562;27.636;2022-08-20T01:35:03;101108.28;;;25.43;100.00
7670;BME280;3877;42.562;27.636;2022-08-20T01:37:30;101102.59;;;25.36;100.00
7670;BME280;3877;42.562;27.636;2022-08-20T01:39:58;101097.28;;;25.31;100.00
7670;BME280;3877;42.562;27.636;2022-08-20T01:42:27;101095.66;;;25.30;100.00
7670;BME280;3877;42.562;27.636;2022-08-20T01:44:59;101085.84;;;25.20;100.00
7670;BME280;3877;42.562;27.636;2022-08-20T01:47:30;101085.88;;;25.17;100.00
7670;BME280;3877;42.562;27.636;2022-08-20T01:50:00;101092.41;;;25.21;100.00
7670;BME280;3877;42.562;27.636;2022-08-20T01:52:34;101091.56;;;25.24;100.00
7670;BME280;3877;42.562;27.636;2022-08-20T01:55:04;101086.69;;;25.21;100.00
7670;BME280;3877;42.562;27.636;2022-08-20T01:57:31;101085.00;;;25.23;100.00
7670;BME280;3877;42.562;27.636;2022-08-20T02:00:04;101075.22;;;25.14;100.00
7670;BME280;3877;42.562;27.636;2022-08-20T02:02:32;101085.88;;;25.17;100.00
7670;BME280;3877;42.562;27.636;2022-08-20T02:04:59;101045.00;;;24.84;100.00
7670;BME280;3877;42.562;27.636;2022-08-20T02:07:27;101079.34;;;25.06;100.00
7670;BME280;3877;42.562;27.636;2022-08-20T02:09:54;101081.81;;;25.04;100.00
7670;BME280;3877;42.562;27.636;2022-08-20T02:12:21;101074.03;;;25.01;100.00
7670;BME280;3877;42.562;27.636;2022-08-20T02:14:53;101069.13;;;24.91;100.00
7670;BME280;3877;42.562;27.636;2022-08-20T02:17:24;101076.94;;;24.94;100.00
7670;BME280;3877;42.562;27.636;2022-08-20T02:19:53;101074.47;;;24.89;100.00
7670;BME280;3877;42.562;27.636;2022-08-20T02:22:24;101074.06;;;24.87;100.00
7670;BME280;3877;42.562;27.636;2022-08-20T02:24:53;101080.19;;;24.81;100.00
7670;BME280;3877;42.562;27.636;2022-08-20T02:27:20;101078.53;;;24.80;100.00
7670;BME280;3877;42.562;27.636;2022-08-20T02:29:48;101077.75;;;24.83;100.00
7670;BME280;3877;42.562;27.636;2022-08-20T02:32:15;101036.03;;;24.65;100.00
7670;BME280;3877;42.562;27.636;2022-08-20T02:34:45;101068.34;;;24.87;100.00
7670;BME280;3877;42.562;27.636;2022-08-20T02:37:12;101058.09;;;24.78;100.00
7670;BME280;3877;42.562;27.636;2022-08-20T02:39:41;101076.09;;;24.72;100.00
7670;BME280;3877;42.562;27.636;2022-08-20T02:42:08;101024.56;;;24.33;100.00
7670;BME280;3877;42.562;27.636;2022-08-20T02:44:37;101075.72;;;24.59;100.00
7670;BME280;3877;42.562;27.636;2022-08-20T02:47:04;101075.72;;;24.59;100.00
7670;BME280;3877;42.562;27.636;2022-08-20T02:49:32;101055.28;;;24.36;100.00
7670;BME280;3877;42.562;27.636;2022-08-20T02:52:01;101036.03;;;24.19;100.00
7670;BME280;3877;42.562;27.636;2022-08-20T02:54:29;101084.31;;;24.45;100.00
7670;BME280;3877;42.562;27.636;2022-08-20T02:56:56;101068.38;;;24.37;100.00
7670;BME280;3877;42.562;27.636;2022-08-20T02:59:23;101049.94;;;24.24;100.00
7670;BME280;3877;42.562;27.636;2022-08-20T03:01:50;101076.13;;;24.33;100.00
7670;BME280;3877;42.562;27.636;2022-08-20T03:04:17;101074.91;;;24.34;100.00
7670;BME280;3877;42.562;27.636;2022-08-20T03:06:45;101069.59;;;24.36;100.00
7670;BME280;3877;42.562;27.636;2022-08-20T03:09:13;101060.59;;;24.27;100.00
7670;BME280;3877;42.562;27.636;2022-08-20T03:11:41;101072.88;;;24.31;100.00
7670;BME280;3877;42.562;27.636;2022-08-20T03:14:08;101076.13;;;24.26;100.00
7670;BME280;3877;42.562;27.636;2022-08-20T03:16:36;101063.03;;;24.25;100.00
7670;BME280;3877;42.562;27.636;2022-08-20T03:19:03;101072.03;;;24.20;100.00
7670;BME280;3877;42.562;27.636;2022-08-20T03:21:30;101080.59;;;23.98;100.00
7670;BME280;3877;42.562;27.636;2022-08-20T03:23:58;101067.88;;;23.92;100.00
7670;BME280;3877;42.562;27.636;2022-08-20T03:26:26;101075.25;;;23.93;100.00
7670;BME280;3877;42.562;27.636;2022-08-20T03:28:53;101088.31;;;23.91;100.00
7670;BME280;3877;42.562;27.636;2022-08-20T03:31:21;101074.00;;;23.87;100.00
7670;BME280;3877;42.562;27.636;2022-08-20T03:33:48;101075.22;;;23.86;100.00
7670;BME280;3877;42.562;27.636;2022-08-20T03:36:15;101085.84;;;23.86;100.00
7670;BME280;3877;42.562;27.636;2022-08-20T03:38:43;101083.41;;;23.91;100.00
7670;BME280;3877;42.562;27.636;2022-08-20T03:41:10;101083.84;;;23.93;100.00
7670;BME280;3877;42.562;27.636;2022-08-20T03:43:39;101080.16;;;23.93;100.00
7670;BME280;3877;42.562;27.636;2022-08-20T03:46:07;101075.66;;;23.92;100.00
7670;BME280;3877;42.562;27.636;2022-08-20T03:48:35;101093.25;;;23.97;100.00
7670;BME280;3877;42.562;27.636;2022-08-20T03:51:02;101090.00;;;24.03;100.00
7670;BME280;3877;42.562;27.636;2022-08-20T03:53:29;101090.81;;;24.03;100.00
7670;BME280;3877;42.562;27.636;2022-08-20T03:55:58;101092.44;;;24.15;100.00
7670;BME280;3877;42.562;27.636;2022-08-20T03:58:26;101093.31;;;24.26;100.00
7670;BME280;3877;42.562;27.636;2022-08-20T04:00:55;101092.50;;;24.36;100.00
7670;BME280;3877;42.562;27.636;2022-08-20T04:03:23;100988.19;;;23.80;100.00
7670;BME280;3877;42.562;27.636;2022-08-20T04:05:51;101085.94;;;24.53;100.00
7670;BME280;3877;42.562;27.636;2022-08-20T04:08:22;101091.66;;;24.67;100.00
7670;BME280;3877;42.562;27.636;2022-08-20T04:10:50;101093.31;;;24.75;100.00
7670;BME280;3877;42.562;27.636;2022-08-20T04:13:21;101086.34;;;24.91;100.00
7670;BME280;3877;42.562;27.636;2022-08-20T04:15:48;101085.91;;;25.03;100.00
7670;BME280;3877;42.562;27.636;2022-08-20T04:18:19;101091.59;;;25.17;100.00
7670;BME280;3877;42.562;27.636;2022-08-20T04:20:47;101096.44;;;25.41;100.00
7670;BME280;3877;42.562;27.636;2022-08-20T04:23:15;101093.09;;;25.60;100.00
7670;BME280;3877;42.562;27.636;2022-08-20T04:25:42;101091.78;;;25.79;100.00
7670;BME280;3877;42.562;27.636;2022-08-20T04:28:13;101075.66;;;25.96;100.00
7670;BME280;3877;42.562;27.636;2022-08-20T04:30:40;101093.59;;;26.14;100.00
7670;BME280;3877;42.562;27.636;2022-08-20T04:33:08;101094.78;;;26.27;100.00
7670;BME280;3877;42.562;27.636;2022-08-20T04:35:37;101087.66;;;26.42;100.00
7670;BME280;3877;42.562;27.636;2022-08-20T04:38:11;101094.88;;;26.61;100.00
7670;BME280;3877;42.562;27.636;2022-08-20T04:40:40;101093.22;;;26.64;100.00
7670;BME280;3877;42.562;27.636;2022-08-20T04:43:21;101056.81;;;26.50;100.00
7670;BME280;3877;42.562;27.636;2022-08-20T04:45:49;101083.59;;;26.84;100.00
7670;BME280;3877;42.562;27.636;2022-08-20T04:48:18;101023.06;;;26.58;100.00
7670;BME280;3877;42.562;27.636;2022-08-20T04:50:50;101085.44;;;27.05;100.00
7670;BME280;3877;42.562;27.636;2022-08-20T04:53:21;101078.53;;;27.33;100.00
7670;BME280;3877;42.562;27.636;2022-08-20T04:55:49;101081.69;;;27.46;100.00
7670;BME280;3877;42.562;27.636;2022-08-20T04:58:18;101074.88;;;27.63;100.00
7670;BME280;3877;42.562;27.636;2022-08-20T05:00:46;101072.50;;;28.15;100.00
7670;BME280;3877;42.562;27.636;2022-08-20T05:03:14;101072.59;;;29.04;100.00
7670;BME280;3877;42.562;27.636;2022-08-20T05:05:42;101067.13;;;29.69;100.00
7670;BME280;3877;42.562;27.636;2022-08-20T05:08:12;101068.41;;;30.04;100.00
7670;BME280;3877;42.562;27.636;2022-08-20T05:10:40;101075.78;;;30.57;100.00
7670;BME280;3877;42.562;27.636;2022-08-20T05:13:08;101071.31;;;31.30;100.00
7670;BME280;3877;42.562;27.636;2022-08-20T05:15:36;101066.50;;;31.94;100.00
7670;BME280;3877;42.562;27.636;2022-08-20T05:18:05;101066.41;;;32.35;100.00
7670;BME280;3877;42.562;27.636;2022-08-20T05:20:36;101062.22;;;32.49;100.00
7670;BME280;3877;42.562;27.636;2022-08-20T05:23:09;101063.69;;;32.79;100.00
7670;BME280;3877;42.562;27.636;2022-08-20T05:25:39;101068.34;;;32.98;100.00
7670;BME280;3877;42.562;27.636;2022-08-20T05:28:09;101048.69;;;32.93;100.00
7670;BME280;3877;42.562;27.636;2022-08-20T05:30:38;101072.97;;;33.08;100.00
7670;BME280;3877;42.562;27.636;2022-08-20T05:33:08;101056.75;;;32.98;100.00
7670;BME280;3877;42.562;27.636;2022-08-20T05:35:37;101069.59;;;32.88;100.00
7670;BME280;3877;42.562;27.636;2022-08-20T05:38:05;101069.31;;;32.95;100.00
7670;BME280;3877;42.562;27.636;2022-08-20T05:40:33;101065.06;;;33.21;100.00
7670;BME280;3877;42.562;27.636;2022-08-20T05:43:02;101062.31;;;33.05;100.00
7670;BME280;3877;42.562;27.636;2022-08-20T05:45:31;101053.50;;;32.49;100.00
7670;BME280;3877;42.562;27.636;2022-08-20T05:47:58;101064.19;;;32.27;100.00
7670;BME280;3877;42.562;27.636;2022-08-20T05:50:26;101066.59;;;32.03;100.00
7670;BME280;3877;42.562;27.636;2022-08-20T05:52:53;101062.69;;;32.22;100.00
7670;BME280;3877;42.562;27.636;2022-08-20T05:55:20;101064.31;;;32.48;100.00
7670;BME280;3877;42.562;27.636;2022-08-20T05:57:49;100965.34;;;31.87;100.00
7670;BME280;3877;42.562;27.636;2022-08-20T06:00:23;101053.28;;;32.43;100.00
7670;BME280;3877;42.562;27.636;2022-08-20T06:02:51;101050.63;;;32.36;100.00
7670;BME280;3877;42.562;27.636;2022-08-20T06:05:35;101052.59;;;32.39;100.00
7670;BME280;3877;42.562;27.636;2022-08-20T06:08:03;101045.06;;;32.04;100.00
7670;BME280;3877;42.562;27.636;2022-08-20T06:10:31;101054.78;;;31.85;100.00
7670;BME280;3877;42.562;27.636;2022-08-20T06:12:58;101057.19;;;31.61;100.00
7670;BME280;3877;42.562;27.636;2022-08-20T06:15:27;101037.88;;;31.42;100.00
7670;BME280;3877;42.562;27.636;2022-08-20T06:17:54;101058.94;;;31.58;100.00
7670;BME280;3877;42.562;27.636;2022-08-20T06:20:22;101040.31;;;31.43;100.00
7670;BME280;3877;42.562;27.636;2022-08-20T06:22:49;101057.19;;;31.32;100.00
7670;BME280;3877;42.562;27.636;2022-08-20T06:25:17;101054.97;;;31.23;100.00
7670;BME280;3877;42.562;27.636;2022-08-20T06:27:44;101052.75;;;31.15;100.00
7670;BME280;3877;42.562;27.636;2022-08-20T06:30:14;101065.81;;;31.07;100.00
7670;BME280;3877;42.562;27.636;2022-08-20T06:32:43;101068.69;;;31.07;100.00
7670;BME280;3877;42.562;27.636;2022-08-20T06:35:11;101075.53;;;31.13;100.00
7670;BME280;3877;42.562;27.636;2022-08-20T06:37:40;101064.31;;;31.15;100.00
7670;BME280;3877;42.562;27.636;2022-08-20T06:40:11;101070.41;;;31.04;100.00
7670;BME280;3877;42.562;27.636;2022-08-20T06:42:39;101078.63;;;31.06;100.00
7670;BME280;3877;42.562;27.636;2022-08-20T06:45:09;101076.25;;;31.01;100.00
7670;BME280;3877;42.562;27.636;2022-08-20T06:47:38;101080.81;;;30.85;100.00
7670;BME280;3877;42.562;27.636;2022-08-20T06:50:09;101075.94;;;30.82;100.00
7670;BME280;3877;42.562;27.636;2022-08-20T06:52:38;101089.84;;;30.88;100.00
7670;BME280;3877;42.562;27.636;2022-08-20T06:55:07;101073.00;;;30.99;100.00
7670;BME280;3877;42.562;27.636;2022-08-20T06:57:35;101068.38;;;31.17;100.00
7670;BME280;3877;42.562;27.636;2022-08-20T07:00:03;101070.09;;;31.15;100.00
7670;BME280;3877;42.562;27.636;2022-08-20T07:02:31;101068.44;;;31.30;100.00
7670;BME280;3877;42.562;27.636;2022-08-20T07:05:00;101074.78;;;31.25;100.00
7670;BME280;3877;42.562;27.636;2022-08-20T07:07:29;100971.97;;;30.63;100.00
7670;BME280;3877;42.562;27.636;2022-08-20T07:09:59;101048.25;;;30.98;100.00
7670;BME280;3877;42.562;27.636;2022-08-20T07:12:27;101044.63;;;31.10;100.00
7670;BME280;3877;42.562;27.636;2022-08-20T07:14:54;101071.47;;;31.39;100.00
7670;BME280;3877;42.562;27.636;2022-08-20T07:17:21;101067.75;;;31.39;100.00
7670;BME280;3877;42.562;27.636;2022-08-20T07:19:48;101063.72;;;31.36;100.00
7670;BME280;3877;42.562;27.636;2022-08-20T07:22:15;101061.84;;;31.42;100.00
7670;BME280;3877;42.562;27.636;2022-08-20T07:24:44;101063.91;;;31.29;100.00
7670;BME280;3877;42.562;27.636;2022-08-20T07:27:11;101062.09;;;31.35;100.00
7670;BME280;3877;42.562;27.636;2022-08-20T07:29:40;101070.22;;;31.11;100.00
7670;BME280;3877;42.562;27.636;2022-08-20T07:32:24;101077.94;;;31.02;100.00
7670;BME280;3877;42.562;27.636;2022-08-20T07:35:02;101070.47;;;31.01;100.00
7670;BME280;3877;42.562;27.636;2022-08-20T07:37:30;101076.25;;;31.01;100.00
7670;BME280;3877;42.562;27.636;2022-08-20T07:39:59;101081.50;;;31.22;100.00
7670;BME280;3877;42.562;27.636;2022-08-20T07:42:27;101078.75;;;31.31;100.00
7670;BME280;3877;42.562;27.636;2022-08-20T07:44:56;101080.16;;;31.39;100.00
7670;BME280;3877;42.562;27.636;2022-08-20T07:47:23;101079.16;;;31.46;100.00
7670;BME280;3877;42.562;27.636;2022-08-20T07:49:50;101068.56;;;31.39;100.00
7670;BME280;3877;42.562;27.636;2022-08-20T07:52:17;101070.22;;;31.40;100.00
7670;BME280;3877;42.562;27.636;2022-08-20T07:54:45;101071.03;;;31.53;100.00
7670;BME280;3877;42.562;27.636;2022-08-20T07:57:13;101075.97;;;31.69;100.00
7670;BME280;3877;42.562;27.636;2022-08-20T07:59:42;101067.88;;;31.77;100.00
7670;BME280;3877;42.562;27.636;2022-08-20T08:02:09;101064.03;;;31.80;100.00
7670;BME280;3877;42.562;27.636;2022-08-20T08:04:37;101068.44;;;31.72;100.00
7670;BME280;3877;42.562;27.636;2022-08-20T08:07:05;101070.41;;;31.75;100.00
7670;BME280;3877;42.562;27.636;2022-08-20T08:09:33;101067.31;;;31.82;100.00
7670;BME280;3877;42.562;27.636;2022-08-20T08:12:10;101065.66;;;31.81;100.00
7670;BME280;3877;42.562;27.636;2022-08-20T08:14:41;101063.03;;;31.86;100.00
7670;BME280;3877;42.562;27.636;2022-08-20T08:17:11;101056.56;;;32.07;100.00
7670;BME280;3877;42.562;27.636;2022-08-20T08:19:45;101064.56;;;32.16;100.00
7670;BME280;3877;42.562;27.636;2022-08-20T08:22:16;101056.13;;;32.22;100.00
7670;BME280;3877;42.562;27.636;2022-08-20T08:24:46;101053.66;;;32.20;100.00
7670;BME280;3877;42.562;27.636;2022-08-20T08:27:14;101047.50;;;32.18;100.00
7670;BME280;3877;42.562;27.636;2022-08-20T08:29:44;101051.09;;;32.22;100.00
7670;BME280;3877;42.562;27.636;2022-08-20T08:32:14;101051.34;;;32.15;100.00
7670;BME280;3877;42.562;27.636;2022-08-20T08:34:41;101053.88;;;32.13;100.00
7670;BME280;3877;42.562;27.636;2022-08-20T08:37:12;101048.56;;;32.24;100.00
7670;BME280;3877;42.562;27.636;2022-08-20T08:39:40;101044.13;;;32.32;100.00
7670;BME280;3877;42.562;27.636;2022-08-20T08:42:21;101040.66;;;32.37;100.00
7670;BME280;3877;42.562;27.636;2022-08-20T08:44:53;101036.34;;;32.42;100.00
7670;BME280;3877;42.562;27.636;2022-08-20T08:47:28;101043.91;;;32.39;100.00
7670;BME280;3877;42.562;27.636;2022-08-20T08:49:57;101042.97;;;32.42;100.00
7670;BME280;3877;42.562;27.636;2022-08-20T08:52:28;101043.78;;;32.43;100.00
7670;BME280;3877;42.562;27.636;2022-08-20T08:54:59;101046.03;;;32.26;100.00
7670;BME280;3877;42.562;27.636;2022-08-20T08:57:27;101050.66;;;32.11;100.00
7670;BME280;3877;42.562;27.636;2022-08-20T08:59:59;101041.13;;;31.98;100.00
7670;BME280;3877;42.562;27.636;2022-08-20T09:02:29;101036.25;;;31.95;100.00
7670;BME280;3877;42.562;27.636;2022-08-20T09:04:59;101030.56;;;31.91;100.00
7670;BME280;3877;42.562;27.636;2022-08-20T09:07:30;101039.72;;;31.64;100.00
7670;BME280;3877;42.562;27.636;2022-08-20T09:10:00;101045.50;;;31.64;100.00
7670;BME280;3877;42.562;27.636;2022-08-20T09:12:28;101031.06;;;31.48;100.00
7670;BME280;3877;42.562;27.636;2022-08-20T09:14:56;101030.66;;;31.62;100.00
7670;BME280;3877;42.562;27.636;2022-08-20T09:17:24;101031.84;;;31.78;100.00
7670;BME280;3877;42.562;27.636;2022-08-20T09:19:51;101027.38;;;31.48;100.00
7670;BME280;3877;42.562;27.636;2022-08-20T09:22:21;101038.69;;;31.42;100.00
7670;BME280;3877;42.562;27.636;2022-08-20T09:24:50;101035.47;;;31.40;100.00
7670;BME280;3877;42.562;27.636;2022-08-20T09:27:18;101033.44;;;31.24;100.00
7670;BME280;3877;42.562;27.636;2022-08-20T09:29:46;101036.59;;;31.30;100.00
7670;BME280;3877;42.562;27.636;2022-08-20T09:32:18;101031.94;;;31.20;100.00
7670;BME280;3877;42.562;27.636;2022-08-20T09:34:48;101032.31;;;31.35;100.00
7670;BME280;3877;42.562;27.636;2022-08-20T09:37:16;101031.06;;;31.36;100.00
7670;BME280;3877;42.562;27.636;2022-08-20T09:39:44;101032.84;;;31.17;100.00
7670;BME280;3877;42.562;27.636;2022-08-20T09:42:13;101024.50;;;31.19;100.00
7670;BME280;3877;42.562;27.636;2022-08-20T09:44:41;101027.53;;;31.28;100.00
7670;BME280;3877;42.562;27.636;2022-08-20T09:47:09;101010.78;;;31.36;100.00
7670;BME280;3877;42.562;27.636;2022-08-20T09:49:38;101013.78;;;31.32;100.00
7670;BME280;3877;42.562;27.636;2022-08-20T09:52:07;101011.44;;;31.27;100.00
7670;BME280;3877;42.562;27.636;2022-08-20T09:54:36;101006.97;;;31.51;100.00
7670;BME280;3877;42.562;27.636;2022-08-20T09:57:06;100997.75;;;31.56;100.00
7670;BME280;3877;42.562;27.636;2022-08-20T09:59:37;100989.31;;;31.62;100.00
7670;BME280;3877;42.562;27.636;2022-08-20T10:02:05;101006.22;;;31.76;100.00
7670;BME280;3877;42.562;27.636;2022-08-20T10:04:32;101011.31;;;31.85;100.00
7670;BME280;3877;42.562;27.636;2022-08-20T10:07:01;100978.03;;;31.51;100.00
7670;BME280;3877;42.562;27.636;2022-08-20T10:09:32;101000.03;;;31.36;100.00
7670;BME280;3877;42.562;27.636;2022-08-20T10:12:00;100978.44;;;31.12;100.00
7670;BME280;3877;42.562;27.636;2022-08-20T10:14:28;100998.13;;;31.17;100.00
7670;BME280;3877;42.562;27.636;2022-08-20T10:17:06;101003.06;;;31.45;100.00
7670;BME280;3877;42.562;27.636;2022-08-20T10:19:34;101001.19;;;31.39;100.00
7670;BME280;3877;42.562;27.636;2022-08-20T10:22:03;101005.16;;;31.57;100.00
7670;BME280;3877;42.562;27.636;2022-08-20T10:24:30;101004.16;;;31.64;100.00
7670;BME280;3877;42.562;27.636;2022-08-20T10:26:59;100996.50;;;31.57;100.00
7670;BME280;3877;42.562;27.636;2022-08-20T10:29:28;101001.19;;;31.51;100.00
7670;BME280;3877;42.562;27.636;2022-08-20T10:31:56;100998.66;;;31.41;100.00
7670;BME280;3877;42.562;27.636;2022-08-20T10:34:24;100996.06;;;31.30;100.00
7670;BME280;3877;42.562;27.636;2022-08-20T10:36:52;100993.88;;;31.47;100.00
7670;BME280;3877;42.562;27.636;2022-08-20T10:39:21;100975.94;;;31.39;100.00
7670;BME280;3877;42.562;27.636;2022-08-20T10:41:48;101001.81;;;31.59;100.00
7670;BME280;3877;42.562;27.636;2022-08-20T10:44:15;100974.59;;;31.56;100.00
7670;BME280;3877;42.562;27.636;2022-08-20T10:46:43;100968.16;;;31.23;100.00
7670;BME280;3877;42.562;27.636;2022-08-20T10:49:10;101000.50;;;31.47;100.00
7670;BME280;3877;42.562;27.636;2022-08-20T10:51:37;100994.81;;;31.31;100.00
7670;BME280;3877;42.562;27.636;2022-08-20T10:54:05;100994.69;;;31.47;100.00
7670;BME280;3877;42.562;27.636;2022-08-20T10:56:34;100996.06;;;31.30;100.00
7670;BME280;3877;42.562;27.636;2022-08-20T10:59:01;100995.38;;;31.26;100.00
7670;BME280;3877;42.562;27.636;2022-08-20T11:01:29;100994.75;;;31.18;100.00
7670;BME280;3877;42.562;27.636;2022-08-20T11:03:56;100980.97;;;31.10;100.00
7670;BME280;3877;42.562;27.636;2022-08-20T11:06:23;100971.66;;;31.31;100.00
7670;BME280;3877;42.562;27.636;2022-08-20T11:08:51;100991.06;;;31.59;100.00
7670;BME280;3877;42.562;27.636;2022-08-20T11:11:18;100991.75;;;31.63;100.00
7670;BME280;3877;42.562;27.636;2022-08-20T11:13:47;100993.38;;;31.64;100.00
7670;BME280;3877;42.562;27.636;2022-08-20T11:16:14;100975.06;;;31.67;100.00
7670;BME280;3877;42.562;27.636;2022-08-20T11:18:42;100984.81;;;31.74;100.00
7670;BME280;3877;42.562;27.636;2022-08-20T11:21:09;100978.19;;;31.73;100.00
7670;BME280;3877;42.562;27.636;2022-08-20T11:23:36;100975.88;;;31.81;100.00
7670;BME280;3877;42.562;27.636;2022-08-20T11:26:03;100975.75;;;31.84;100.00
7670;BME280;3877;42.562;27.636;2022-08-20T11:28:31;100976.44;;;31.76;100.00
7670;BME280;3877;42.562;27.636;2022-08-20T11:31:00;100979.94;;;31.83;100.00
7670;BME280;3877;42.562;27.636;2022-08-20T11:33:28;100974.13;;;31.70;100.00
7670;BME280;3877;42.562;27.636;2022-08-20T11:35:55;100970.78;;;31.72;100.00
7670;BME280;3877;42.562;27.636;2022-08-20T11:38:23;100970.44;;;31.57;100.00
7670;BME280;3877;42.562;27.636;2022-08-20T11:40:50;100971.94;;;31.75;100.00
7670;BME280;3877;42.562;27.636;2022-08-20T11:43:17;100961.41;;;31.68;100.00
7670;BME280;3877;42.562;27.636;2022-08-20T11:45:47;100973.44;;;31.66;100.00
7670;BME280;3877;42.562;27.636;2022-08-20T11:48:16;100979.88;;;31.45;100.00
7670;BME280;3877;42.562;27.636;2022-08-20T11:50:44;100966.44;;;31.51;100.00
7670;BME280;3877;42.562;27.636;2022-08-20T11:53:12;100963.59;;;31.64;100.00
7670;BME280;3877;42.562;27.636;2022-08-20T11:55:39;100973.22;;;31.74;100.00
7670;BME280;3877;42.562;27.636;2022-08-20T11:58:06;100976.34;;;31.66;100.00
7670;BME280;3877;42.562;27.636;2022-08-20T12:00:34;100960.66;;;31.51;100.00
7670;BME280;3877;42.562;27.636;2022-08-20T12:03:04;100971.13;;;31.61;100.00
7670;BME280;3877;42.562;27.636;2022-08-20T12:05:33;100925.34;;;31.44;100.00
7670;BME280;3877;42.562;27.636;2022-08-20T12:08:00;100934.97;;;31.53;100.00
7670;BME280;3877;42.562;27.636;2022-08-20T12:10:28;100959.38;;;31.52;100.00
7670;BME280;3877;42.562;27.636;2022-08-20T12:12:56;100940.75;;;31.41;100.00
7670;BME280;3877;42.562;27.636;2022-08-20T12:15:23;100951.28;;;31.47;100.00
7670;BME280;3877;42.562;27.636;2022-08-20T12:17:51;100945.09;;;31.20;100.00
7670;BME280;3877;42.562;27.636;2022-08-20T12:20:18;100942.22;;;31.20;100.00
7670;BME280;3877;42.562;27.636;2022-08-20T12:22:47;100944.66;;;31.34;100.00
7670;BME280;3877;42.562;27.636;2022-08-20T12:25:15;100951.47;;;31.27;100.00
7670;BME280;3877;42.562;27.636;2022-08-20T12:27:42;100936.66;;;31.25;100.00
7670;BME280;3877;42.562;27.636;2022-08-20T12:30:12;100934.47;;;31.17;100.00
7670;BME280;3877;42.562;27.636;2022-08-20T12:32:40;100926.00;;;31.22;100.00
7670;BME280;3877;42.562;27.636;2022-08-20T12:35:10;100934.25;;;31.49;100.00
7670;BME280;3877;42.562;27.636;2022-08-20T12:37:37;100934.47;;;31.42;100.00
7670;BME280;3877;42.562;27.636;2022-08-20T12:40:09;100928.47;;;31.49;100.00
7670;BME280;3877;42.562;27.636;2022-08-20T12:42:36;100931.59;;;31.55;100.00
7670;BME280;3877;42.562;27.636;2022-08-20T12:45:05;100932.63;;;31.48;100.00
7670;BME280;3877;42.562;27.636;2022-08-20T12:47:34;100931.16;;;31.56;100.00
7670;BME280;3877;42.562;27.636;2022-08-20T12:50:04;100915.84;;;31.31;100.00
7670;BME280;3877;42.562;27.636;2022-08-20T12:52:32;100917.91;;;31.30;100.00
7670;BME280;3877;42.562;27.636;2022-08-20T12:55:00;100921.25;;;31.41;100.00
7670;BME280;3877;42.562;27.636;2022-08-20T12:57:30;100885.84;;;31.37;100.00